sensor_id;sensor_type;location;lat;lon;timestamp;temperature;humidity
22842;DHT22;11587;47.064;15.444;2022-08-11T00:01:24;20.20;99.90
22842;DHT22;11587;47.064;15.444;2022-08-11T00:06:27;20.20;99.90
22842;DHT22;11587;47.064;15.444;2022-08-11T00:08:54;20.20;99.90
22842;DHT22;11587;47.064;15.444;2022-08-11T00:11:21;20.10;99.90
22842;DHT22;11587;47.064;15.444;2022-08-11T00:13:56;19.90;99.90
22842;DHT22;11587;47.064;15.444;2022-08-11T00:16:24;19.90;99.90
22842;DHT22;11587;47.064;15.444;2022-08-11T00:18:53;19.90;99.90
22842;DHT22;11587;47.064;15.444;2022-08-11T00:23:56;19.80;99.90
22842;DHT22;11587;47.064;15.444;2022-08-11T00:26:23;19.90;99.90
22842;DHT22;11587;47.064;15.444;2022-08-11T00:28:50;19.80;99.90
22842;DHT22;11587;47.064;15.444;2022-08-11T00:31:27;19.80;99.90
22842;DHT22;11587;47.064;15.444;2022-08-11T00:38:46;19.70;99.90
22842;DHT22;11587;47.064;15.444;2022-08-11T00:44:22;19.70;99.90
22842;DHT22;11587;47.064;15.444;2022-08-11T00:47:10;19.70;99.90
22842;DHT22;11587;47.064;15.444;2022-08-11T01:01:47;19.50;99.90
22842;DHT22;11587;47.064;15.444;2022-08-11T01:31:36;18.90;99.90
22842;DHT22;11587;47.064;15.444;2022-08-11T01:45:21;18.80;99.90
22842;DHT22;11587;47.064;15.444;2022-08-11T02:15:44;18.60;99.90
22842;DHT22;11587;47.064;15.444;2022-08-11T02:18:16;18.60;99.90
22842;DHT22;11587;47.064;15.444;2022-08-11T02:23:33;18.60;99.90
22842;DHT22;11587;47.064;15.444;2022-08-11T02:26:22;18.60;99.90
22842;DHT22;11587;47.064;15.444;2022-08-11T02:32:06;18.50;99.90
22842;DHT22;11587;47.064;15.444;2022-08-11T02:35:13;18.60;99.90
22842;DHT22;11587;47.064;15.444;2022-08-11T02:37:49;18.60;99.90
22842;DHT22;11587;47.064;15.444;2022-08-11T02:40:33;18.60;99.90
22842;DHT22;11587;47.064;15.444;2022-08-11T02:43:08;18.50;99.90
22842;DHT22;11587;47.064;15.444;2022-08-11T02:48:35;18.50;99.90
22842;DHT22;11587;47.064;15.444;2022-08-11T02:54:52;18.50;99.90
22842;DHT22;11587;47.064;15.444;2022-08-11T02:57:32;18.40;99.90
22842;DHT22;11587;47.064;15.444;2022-08-11T03:05:02;18.30;99.90
22842;DHT22;11587;47.064;15.444;2022-08-11T03:27:49;18.30;99.90
22842;DHT22;11587;47.064;15.444;2022-08-11T03:30:24;18.10;99.90
22842;DHT22;11587;47.064;15.444;2022-08-11T03:42:00;18.10;99.90
22842;DHT22;11587;47.064;15.444;2022-08-11T03:46:58;18.00;99.90
22842;DHT22;11587;47.064;15.444;2022-08-11T03:58:43;17.90;99.90
22842;DHT22;11587;47.064;15.444;2022-08-11T04:28:39;16.80;99.90
22842;DHT22;11587;47.064;15.444;2022-08-11T04:40:05;16.90;99.90
22842;DHT22;11587;47.064;15.444;2022-08-11T04:51:56;17.10;99.90
22842;DHT22;11587;47.064;15.444;2022-08-11T04:57:58;17.10;99.90
22842;DHT22;11587;47.064;15.444;2022-08-11T05:04:38;17.10;99.90
22842;DHT22;11587;47.064;15.444;2022-08-11T05:13:09;17.40;99.90
22842;DHT22;11587;47.064;15.444;2022-08-11T05:15:57;17.40;99.90
22842;DHT22;11587;47.064;15.444;2022-08-11T05:19:03;17.50;99.90
22842;DHT22;11587;47.064;15.444;2022-08-11T05:21:53;17.60;99.90
22842;DHT22;11587;47.064;15.444;2022-08-11T05:24:46;17.60;99.90
22842;DHT22;11587;47.064;15.444;2022-08-11T05:27:54;17.60;99.90
22842;DHT22;11587;47.064;15.444;2022-08-11T05:30:43;17.70;99.90
22842;DHT22;11587;47.064;15.444;2022-08-11T05:33:48;17.70;99.90
22842;DHT22;11587;47.064;15.444;2022-08-11T05:36:48;17.80;99.90
22842;DHT22;11587;47.064;15.444;2022-08-11T05:39:18;17.90;99.90
22842;DHT22;11587;47.064;15.444;2022-08-11T05:42:05;18.00;99.90
22842;DHT22;11587;47.064;15.444;2022-08-11T05:44:56;18.00;99.90
22842;DHT22;11587;47.064;15.444;2022-08-11T05:47:42;18.10;99.90
22842;DHT22;11587;47.064;15.444;2022-08-11T05:50:33;18.10;99.90
22842;DHT22;11587;47.064;15.444;2022-08-11T05:58:09;18.20;99.90
22842;DHT22;11587;47.064;15.444;2022-08-11T06:00:44;18.30;99.90
22842;DHT22;11587;47.064;15.444;2022-08-11T06:03:11;18.40;99.90
22842;DHT22;11587;47.064;15.444;2022-08-11T06:05:45;18.50;99.90
22842;DHT22;11587;47.064;15.444;2022-08-11T06:08:13;18.50;99.90
22842;DHT22;11587;47.064;15.444;2022-08-11T06:10:41;18.60;99.90
22842;DHT22;11587;47.064;15.444;2022-08-11T06:13:09;18.60;99.90
22842;DHT22;11587;47.064;15.444;2022-08-11T06:15:46;18.70;99.90
22842;DHT22;11587;47.064;15.444;2022-08-11T06:18:13;18.80;99.90
22842;DHT22;11587;47.064;15.444;2022-08-11T06:20:56;18.80;99.90
22842;DHT22;11587;47.064;15.444;2022-08-11T06:23:30;18.90;99.90
22842;DHT22;11587;47.064;15.444;2022-08-11T06:25:57;18.90;99.90
22842;DHT22;11587;47.064;15.444;2022-08-11T06:28:32;18.90;99.90
22842;DHT22;11587;47.064;15.444;2022-08-11T06:30:59;19.00;99.90
22842;DHT22;11587;47.064;15.444;2022-08-11T06:33:34;19.10;99.90
22842;DHT22;11587;47.064;15.444;2022-08-11T06:38:56;19.30;99.90
22842;DHT22;11587;47.064;15.444;2022-08-11T06:41:53;19.40;99.90
22842;DHT22;11587;47.064;15.444;2022-08-11T06:44:32;19.50;99.90
22842;DHT22;11587;47.064;15.444;2022-08-11T06:47:07;19.50;99.90
22842;DHT22;11587;47.064;15.444;2022-08-11T06:49:45;19.60;99.90
22842;DHT22;11587;47.064;15.444;2022-08-11T06:55:00;19.80;99.90
22842;DHT22;11587;47.064;15.444;2022-08-11T06:57:32;19.80;99.90
22842;DHT22;11587;47.064;15.444;2022-08-11T07:00:18;19.90;99.90
22842;DHT22;11587;47.064;15.444;2022-08-11T07:03:06;20.00;99.90
22842;DHT22;11587;47.064;15.444;2022-08-11T07:05:41;20.00;99.90
22842;DHT22;11587;47.064;15.444;2022-08-11T07:14:51;20.20;99.90
22842;DHT22;11587;47.064;15.444;2022-08-11T07:17:56;20.20;99.90
22842;DHT22;11587;47.064;15.444;2022-08-11T07:20:44;20.20;99.90
22842;DHT22;11587;47.064;15.444;2022-08-11T07:23:32;20.50;99.90
22842;DHT22;11587;47.064;15.444;2022-08-11T07:26:19;20.70;99.90
22842;DHT22;11587;47.064;15.444;2022-08-11T07:29:06;20.90;99.90
22842;DHT22;11587;47.064;15.444;2022-08-11T07:31:37;20.90;99.90
22842;DHT22;11587;47.064;15.444;2022-08-11T07:36:32;21.10;99.90
22842;DHT22;11587;47.064;15.444;2022-08-11T07:39:01;21.10;99.90
22842;DHT22;11587;47.064;15.444;2022-08-11T07:41:28;21.10;99.90
22842;DHT22;11587;47.064;15.444;2022-08-11T07:43:59;21.10;99.90
22842;DHT22;11587;47.064;15.444;2022-08-11T07:46:46;21.20;99.90
22842;DHT22;11587;47.064;15.444;2022-08-11T07:49:34;21.20;99.90
22842;DHT22;11587;47.064;15.444;2022-08-11T07:52:20;21.20;99.90
22842;DHT22;11587;47.064;15.444;2022-08-11T07:55:14;21.30;99.90
22842;DHT22;11587;47.064;15.444;2022-08-11T07:57:44;21.30;99.90
22842;DHT22;11587;47.064;15.444;2022-08-11T08:00:38;21.30;99.90
22842;DHT22;11587;47.064;15.444;2022-08-11T08:03:26;21.40;99.90
22842;DHT22;11587;47.064;15.444;2022-08-11T08:06:11;21.40;99.90
22842;DHT22;11587;47.064;15.444;2022-08-11T08:08:56;21.50;99.90
22842;DHT22;11587;47.064;15.444;2022-08-11T08:11:43;21.60;99.90
22842;DHT22;11587;47.064;15.444;2022-08-11T08:14:28;21.60;99.90
22842;DHT22;11587;47.064;15.444;2022-08-11T08:17:13;21.50;99.90
22842;DHT22;11587;47.064;15.444;2022-08-11T08:19:58;21.60;99.90
22842;DHT22;11587;47.064;15.444;2022-08-11T08:22:25;21.70;99.90
22842;DHT22;11587;47.064;15.444;2022-08-11T08:24:52;21.70;99.90
22842;DHT22;11587;47.064;15.444;2022-08-11T08:27:18;21.80;99.90
22842;DHT22;11587;47.064;15.444;2022-08-11T08:29:45;22.00;99.90
22842;DHT22;11587;47.064;15.444;2022-08-11T08:32:31;22.10;99.90
22842;DHT22;11587;47.064;15.444;2022-08-11T08:35:00;22.20;99.90
22842;DHT22;11587;47.064;15.444;2022-08-11T08:37:27;22.30;99.90
22842;DHT22;11587;47.064;15.444;2022-08-11T08:39:53;22.30;99.90
22842;DHT22;11587;47.064;15.444;2022-08-11T08:42:27;22.30;99.90
22842;DHT22;11587;47.064;15.444;2022-08-11T08:45:07;22.10;99.90
22842;DHT22;11587;47.064;15.444;2022-08-11T08:47:42;22.20;99.90
22842;DHT22;11587;47.064;15.444;2022-08-11T08:50:15;22.20;99.90
22842;DHT22;11587;47.064;15.444;2022-08-11T08:52:56;22.50;99.90
22842;DHT22;11587;47.064;15.444;2022-08-11T08:55:23;22.50;99.90
22842;DHT22;11587;47.064;15.444;2022-08-11T08:57:51;22.60;99.90
22842;DHT22;11587;47.064;15.444;2022-08-11T09:00:19;22.60;99.90
22842;DHT22;11587;47.064;15.444;2022-08-11T09:02:47;22.70;99.90
22842;DHT22;11587;47.064;15.444;2022-08-11T09:05:16;22.80;99.90
22842;DHT22;11587;47.064;15.444;2022-08-11T09:07:44;22.80;99.90
22842;DHT22;11587;47.064;15.444;2022-08-11T09:10:12;22.80;99.90
22842;DHT22;11587;47.064;15.444;2022-08-11T09:12:42;22.90;99.90
22842;DHT22;11587;47.064;15.444;2022-08-11T09:15:11;23.00;99.90
22842;DHT22;11587;47.064;15.444;2022-08-11T09:20:12;23.00;99.90
22842;DHT22;11587;47.064;15.444;2022-08-11T09:22:41;23.00;99.90
22842;DHT22;11587;47.064;15.444;2022-08-11T09:25:30;23.10;99.90
22842;DHT22;11587;47.064;15.444;2022-08-11T09:28:16;23.10;99.90
22842;DHT22;11587;47.064;15.444;2022-08-11T09:30:46;23.20;99.90
22842;DHT22;11587;47.064;15.444;2022-08-11T09:33:15;23.20;99.90
22842;DHT22;11587;47.064;15.444;2022-08-11T09:35:42;23.30;99.90
22842;DHT22;11587;47.064;15.444;2022-08-11T09:38:12;23.40;99.90
22842;DHT22;11587;47.064;15.444;2022-08-11T09:40:58;23.40;99.90
22842;DHT22;11587;47.064;15.444;2022-08-11T09:43:25;23.60;99.90
22842;DHT22;11587;47.064;15.444;2022-08-11T09:46:12;23.50;99.90
22842;DHT22;11587;47.064;15.444;2022-08-11T09:48:41;23.40;99.90
22842;DHT22;11587;47.064;15.444;2022-08-11T09:51:09;23.50;99.90
22842;DHT22;11587;47.064;15.444;2022-08-11T09:53:41;23.60;99.90
22842;DHT22;11587;47.064;15.444;2022-08-11T09:56:15;23.90;99.90
22842;DHT22;11587;47.064;15.444;2022-08-11T09:59:01;23.90;99.90
22842;DHT22;11587;47.064;15.444;2022-08-11T10:01:59;24.10;99.90
22842;DHT22;11587;47.064;15.444;2022-08-11T10:04:40;24.10;99.90
22842;DHT22;11587;47.064;15.444;2022-08-11T10:07:07;24.20;99.90
22842;DHT22;11587;47.064;15.444;2022-08-11T10:09:48;24.20;99.90
22842;DHT22;11587;47.064;15.444;2022-08-11T10:12:36;24.30;99.90
22842;DHT22;11587;47.064;15.444;2022-08-11T10:15:11;24.20;99.90
22842;DHT22;11587;47.064;15.444;2022-08-11T10:20:49;24.40;99.90
22842;DHT22;11587;47.064;15.444;2022-08-11T10:23:16;24.80;99.90
22842;DHT22;11587;47.064;15.444;2022-08-11T10:26:02;24.90;99.90
22842;DHT22;11587;47.064;15.444;2022-08-11T10:28:48;25.00;99.90
22842;DHT22;11587;47.064;15.444;2022-08-11T10:31:15;24.90;99.90
22842;DHT22;11587;47.064;15.444;2022-08-11T10:34:01;25.00;99.90
22842;DHT22;11587;47.064;15.444;2022-08-11T10:36:31;25.10;99.90
22842;DHT22;11587;47.064;15.444;2022-08-11T10:39:00;25.20;99.90
22842;DHT22;11587;47.064;15.444;2022-08-11T10:41:27;25.40;99.90
22842;DHT22;11587;47.064;15.444;2022-08-11T10:44:13;25.70;99.90
22842;DHT22;11587;47.064;15.444;2022-08-11T10:46:39;25.70;99.90
22842;DHT22;11587;47.064;15.444;2022-08-11T10:49:24;25.70;99.90
22842;DHT22;11587;47.064;15.444;2022-08-11T10:51:52;25.90;99.90
22842;DHT22;11587;47.064;15.444;2022-08-11T10:54:40;25.60;99.90
22842;DHT22;11587;47.064;15.444;2022-08-11T10:57:29;26.00;99.90
22842;DHT22;11587;47.064;15.444;2022-08-11T11:00:15;25.90;99.90
22842;DHT22;11587;47.064;15.444;2022-08-11T11:02:42;26.00;99.90
22842;DHT22;11587;47.064;15.444;2022-08-11T11:05:29;26.10;99.90
22842;DHT22;11587;47.064;15.444;2022-08-11T11:08:12;26.50;99.90
22842;DHT22;11587;47.064;15.444;2022-08-11T11:10:58;26.80;99.90
22842;DHT22;11587;47.064;15.444;2022-08-11T11:13:25;26.90;99.90
22842;DHT22;11587;47.064;15.444;2022-08-11T11:16:11;26.80;99.90
22842;DHT22;11587;47.064;15.444;2022-08-11T11:19:10;26.70;99.90
22842;DHT22;11587;47.064;15.444;2022-08-11T11:21:39;26.90;99.90
22842;DHT22;11587;47.064;15.444;2022-08-11T11:27:37;27.40;99.90
22842;DHT22;11587;47.064;15.444;2022-08-11T11:30:10;27.50;99.90
22842;DHT22;11587;47.064;15.444;2022-08-11T11:35:28;27.20;99.90
22842;DHT22;11587;47.064;15.444;2022-08-11T11:37:56;27.00;99.90
22842;DHT22;11587;47.064;15.444;2022-08-11T11:40:23;26.70;99.90
22842;DHT22;11587;47.064;15.444;2022-08-11T11:42:51;26.60;99.90
22842;DHT22;11587;47.064;15.444;2022-08-11T11:45:20;27.60;99.90
22842;DHT22;11587;47.064;15.444;2022-08-11T11:47:51;29.40;99.90
22842;DHT22;11587;47.064;15.444;2022-08-11T11:50:27;29.80;96.60
22842;DHT22;11587;47.064;15.444;2022-08-11T11:52:53;29.50;97.10
22842;DHT22;11587;47.064;15.444;2022-08-11T11:55:24;29.70;96.80
22842;DHT22;11587;47.064;15.444;2022-08-11T11:57:52;30.30;98.70
22842;DHT22;11587;47.064;15.444;2022-08-11T12:00:38;30.90;97.30
22842;DHT22;11587;47.064;15.444;2022-08-11T12:03:23;31.10;96.50
22842;DHT22;11587;47.064;15.444;2022-08-11T12:05:51;31.10;95.50
22842;DHT22;11587;47.064;15.444;2022-08-11T12:08:19;31.80;95.80
22842;DHT22;11587;47.064;15.444;2022-08-11T12:10:53;32.80;96.10
22842;DHT22;11587;47.064;15.444;2022-08-11T12:13:44;33.70;95.00
22842;DHT22;11587;47.064;15.444;2022-08-11T12:16:12;34.60;93.80
22842;DHT22;11587;47.064;15.444;2022-08-11T12:18:40;35.40;92.50
22842;DHT22;11587;47.064;15.444;2022-08-11T12:21:08;35.60;93.40
22842;DHT22;11587;47.064;15.444;2022-08-11T12:23:36;36.30;91.90
22842;DHT22;11587;47.064;15.444;2022-08-11T12:26:21;36.50;90.70
22842;DHT22;11587;47.064;15.444;2022-08-11T12:29:24;36.40;91.10
22842;DHT22;11587;47.064;15.444;2022-08-11T12:31:53;36.70;91.00
22842;DHT22;11587;47.064;15.444;2022-08-11T12:34:20;38.00;87.50
22842;DHT22;11587;47.064;15.444;2022-08-11T12:37:04;38.70;88.00
22842;DHT22;11587;47.064;15.444;2022-08-11T12:39:45;38.60;87.00
22842;DHT22;11587;47.064;15.444;2022-08-11T12:42:33;38.30;87.20
22842;DHT22;11587;47.064;15.444;2022-08-11T12:45:18;38.50;86.60
22842;DHT22;11587;47.064;15.444;2022-08-11T12:48:09;38.40;85.10
22842;DHT22;11587;47.064;15.444;2022-08-11T12:53:56;39.30;86.90
22842;DHT22;11587;47.064;15.444;2022-08-11T12:56:37;38.80;84.30
22842;DHT22;11587;47.064;15.444;2022-08-11T12:59:24;39.00;84.00
22842;DHT22;11587;47.064;15.444;2022-08-11T13:02:14;38.70;84.00
22842;DHT22;11587;47.064;15.444;2022-08-11T13:05:04;38.20;80.80
22842;DHT22;11587;47.064;15.444;2022-08-11T13:07:31;37.70;81.90
22842;DHT22;11587;47.064;15.444;2022-08-11T13:10:00;36.70;81.20
22842;DHT22;11587;47.064;15.444;2022-08-11T13:12:28;36.20;79.50
22842;DHT22;11587;47.064;15.444;2022-08-11T13:15:16;36.10;80.00
22842;DHT22;11587;47.064;15.444;2022-08-11T13:17:43;33.90;80.80
22842;DHT22;11587;47.064;15.444;2022-08-11T13:20:11;35.00;84.40
22842;DHT22;11587;47.064;15.444;2022-08-11T13:22:41;37.00;83.60
22842;DHT22;11587;47.064;15.444;2022-08-11T13:25:14;38.70;82.30
22842;DHT22;11587;47.064;15.444;2022-08-11T13:27:42;39.70;80.70
22842;DHT22;11587;47.064;15.444;2022-08-11T13:30:09;39.60;77.70
22842;DHT22;11587;47.064;15.444;2022-08-11T13:32:54;37.90;79.00
22842;DHT22;11587;47.064;15.444;2022-08-11T13:35:21;38.80;78.30
22842;DHT22;11587;47.064;15.444;2022-08-11T13:37:48;38.00;79.10
22842;DHT22;11587;47.064;15.444;2022-08-11T13:40:17;37.50;81.20
22842;DHT22;11587;47.064;15.444;2022-08-11T13:42:45;38.00;80.30
22842;DHT22;11587;47.064;15.444;2022-08-11T13:45:11;36.50;78.90
22842;DHT22;11587;47.064;15.444;2022-08-11T13:47:41;36.10;83.10
22842;DHT22;11587;47.064;15.444;2022-08-11T13:50:08;35.50;83.00
22842;DHT22;11587;47.064;15.444;2022-08-11T13:52:37;34.90;86.30
22842;DHT22;11587;47.064;15.444;2022-08-11T13:55:09;34.60;85.20
22842;DHT22;11587;47.064;15.444;2022-08-11T13:57:36;34.50;86.00
22842;DHT22;11587;47.064;15.444;2022-08-11T14:00:06;34.40;83.20
22842;DHT22;11587;47.064;15.444;2022-08-11T14:02:41;34.20;85.40
22842;DHT22;11587;47.064;15.444;2022-08-11T14:05:12;32.90;84.40
22842;DHT22;11587;47.064;15.444;2022-08-11T14:08:03;32.60;87.60
22842;DHT22;11587;47.064;15.444;2022-08-11T14:10:34;31.60;87.80
22842;DHT22;11587;47.064;15.444;2022-08-11T14:13:06;31.30;90.30
22842;DHT22;11587;47.064;15.444;2022-08-11T14:15:51;31.20;89.90
22842;DHT22;11587;47.064;15.444;2022-08-11T14:18:24;31.10;89.30
22842;DHT22;11587;47.064;15.444;2022-08-11T14:20:55;31.20;90.60
22842;DHT22;11587;47.064;15.444;2022-08-11T14:23:45;30.60;90.90
22842;DHT22;11587;47.064;15.444;2022-08-11T14:26:15;30.50;91.40
22842;DHT22;11587;47.064;15.444;2022-08-11T14:31:34;31.20;92.20
22842;DHT22;11587;47.064;15.444;2022-08-11T14:34:04;32.40;91.00
22842;DHT22;11587;47.064;15.444;2022-08-11T14:37:17;33.60;89.80
22842;DHT22;11587;47.064;15.444;2022-08-11T14:39:31;34.40;87.80
22842;DHT22;11587;47.064;15.444;2022-08-11T14:42:05;35.10;87.10
22842;DHT22;11587;47.064;15.444;2022-08-11T14:44:55;35.30;84.40
22842;DHT22;11587;47.064;15.444;2022-08-11T14:47:56;34.50;82.60
22842;DHT22;11587;47.064;15.444;2022-08-11T14:50:25;35.40;84.20
22842;DHT22;11587;47.064;15.444;2022-08-11T14:53:07;36.60;84.20
22842;DHT22;11587;47.064;15.444;2022-08-11T14:55:36;36.80;82.30
22842;DHT22;11587;47.064;15.444;2022-08-11T14:58:24;37.10;82.10
22842;DHT22;11587;47.064;15.444;2022-08-11T15:00:53;37.00;80.20
22842;DHT22;11587;47.064;15.444;2022-08-11T15:03:20;35.30;81.00
22842;DHT22;11587;47.064;15.444;2022-08-11T15:05:55;34.80;80.40
22842;DHT22;11587;47.064;15.444;2022-08-11T15:08:33;33.40;82.60
22842;DHT22;11587;47.064;15.444;2022-08-11T15:11:25;32.80;83.70
22842;DHT22;11587;47.064;15.444;2022-08-11T15:16:43;33.40;86.20
22842;DHT22;11587;47.064;15.444;2022-08-11T15:19:28;33.40;85.10
22842;DHT22;11587;47.064;15.444;2022-08-11T15:21:55;33.40;86.80
22842;DHT22;11587;47.064;15.444;2022-08-11T15:24:40;32.60;87.80
22842;DHT22;11587;47.064;15.444;2022-08-11T15:27:14;31.50;88.20
22842;DHT22;11587;47.064;15.444;2022-08-11T15:30:02;30.80;87.50
22842;DHT22;11587;47.064;15.444;2022-08-11T15:32:58;30.50;89.20
22842;DHT22;11587;47.064;15.444;2022-08-11T15:35:43;30.20;90.60
22842;DHT22;11587;47.064;15.444;2022-08-11T15:38:27;29.90;90.70
22842;DHT22;11587;47.064;15.444;2022-08-11T15:45:53;29.60;91.10
22842;DHT22;11587;47.064;15.444;2022-08-11T15:48:21;29.60;91.60
22842;DHT22;11587;47.064;15.444;2022-08-11T15:50:52;29.30;91.50
22842;DHT22;11587;47.064;15.444;2022-08-11T15:53:26;29.30;92.00
22842;DHT22;11587;47.064;15.444;2022-08-11T15:58:20;29.10;91.90
22842;DHT22;11587;47.064;15.444;2022-08-11T16:04:20;29.20;92.00
22842;DHT22;11587;47.064;15.444;2022-08-11T16:07:04;29.30;92.30
22842;DHT22;11587;47.064;15.444;2022-08-11T16:09:35;29.40;92.20
22842;DHT22;11587;47.064;15.444;2022-08-11T16:12:05;29.10;91.80
22842;DHT22;11587;47.064;15.444;2022-08-11T16:14:40;29.20;92.10
22842;DHT22;11587;47.064;15.444;2022-08-11T16:17:26;29.10;92.30
22842;DHT22;11587;47.064;15.444;2022-08-11T16:19:56;29.00;93.10
22842;DHT22;11587;47.064;15.444;2022-08-11T16:24:50;28.70;93.00
22842;DHT22;11587;47.064;15.444;2022-08-11T16:27:16;28.50;92.80
22842;DHT22;11587;47.064;15.444;2022-08-11T16:29:46;28.30;92.80
22842;DHT22;11587;47.064;15.444;2022-08-11T16:32:17;28.30;93.30
22842;DHT22;11587;47.064;15.444;2022-08-11T16:39:36;27.80;93.00
22842;DHT22;11587;47.064;15.444;2022-08-11T16:42:03;27.70;93.70
22842;DHT22;11587;47.064;15.444;2022-08-11T16:44:48;27.50;93.40
22842;DHT22;11587;47.064;15.444;2022-08-11T16:47:33;27.60;93.60
22842;DHT22;11587;47.064;15.444;2022-08-11T16:49:59;27.50;93.60
22842;DHT22;11587;47.064;15.444;2022-08-11T16:57:25;27.00;93.60
22842;DHT22;11587;47.064;15.444;2022-08-11T17:00:13;26.90;94.20
22842;DHT22;11587;47.064;15.444;2022-08-11T17:02:46;26.60;94.50
22842;DHT22;11587;47.064;15.444;2022-08-11T17:05:34;26.70;95.40
22842;DHT22;11587;47.064;15.444;2022-08-11T17:08:30;26.60;95.50
22842;DHT22;11587;47.064;15.444;2022-08-11T17:11:16;26.60;95.60
22842;DHT22;11587;47.064;15.444;2022-08-11T17:14:11;26.40;95.30
22842;DHT22;11587;47.064;15.444;2022-08-11T17:16:41;26.40;95.20
22842;DHT22;11587;47.064;15.444;2022-08-11T17:19:19;26.40;96.00
22842;DHT22;11587;47.064;15.444;2022-08-11T17:24:11;26.40;95.30
22842;DHT22;11587;47.064;15.444;2022-08-11T17:26:42;26.20;95.10
22842;DHT22;11587;47.064;15.444;2022-08-11T17:29:30;26.10;96.00
22842;DHT22;11587;47.064;15.444;2022-08-11T17:32:02;26.00;96.20
22842;DHT22;11587;47.064;15.444;2022-08-11T17:34:48;26.00;96.30
22842;DHT22;11587;47.064;15.444;2022-08-11T17:37:35;25.80;95.90
22842;DHT22;11587;47.064;15.444;2022-08-11T17:40:05;25.70;95.60
22842;DHT22;11587;47.064;15.444;2022-08-11T17:44:58;25.60;96.00
22842;DHT22;11587;47.064;15.444;2022-08-11T17:47:44;25.60;97.10
22842;DHT22;11587;47.064;15.444;2022-08-11T17:50:30;25.60;97.00
22842;DHT22;11587;47.064;15.444;2022-08-11T17:52:58;25.40;96.40
22842;DHT22;11587;47.064;15.444;2022-08-11T17:55:44;25.50;97.40
22842;DHT22;11587;47.064;15.444;2022-08-11T17:58:30;25.50;97.60
22842;DHT22;11587;47.064;15.444;2022-08-11T18:06:09;25.30;98.20
22842;DHT22;11587;47.064;15.444;2022-08-11T18:08:42;25.30;98.20
22842;DHT22;11587;47.064;15.444;2022-08-11T18:11:30;25.30;98.00
22842;DHT22;11587;47.064;15.444;2022-08-11T18:14:17;25.30;98.50
22842;DHT22;11587;47.064;15.444;2022-08-11T18:17:03;25.10;97.60
22842;DHT22;11587;47.064;15.444;2022-08-11T18:19:48;25.10;98.40
22842;DHT22;11587;47.064;15.444;2022-08-11T18:22:40;24.90;97.80
22842;DHT22;11587;47.064;15.444;2022-08-11T18:25:30;24.70;98.40
22842;DHT22;11587;47.064;15.444;2022-08-11T18:28:23;24.70;98.70
22842;DHT22;11587;47.064;15.444;2022-08-11T18:31:13;24.70;97.90
22842;DHT22;11587;47.064;15.444;2022-08-11T18:38:50;24.70;97.50
22842;DHT22;11587;47.064;15.444;2022-08-11T18:41:37;24.70;98.30
22842;DHT22;11587;47.064;15.444;2022-08-11T18:44:25;24.60;99.10
22842;DHT22;11587;47.064;15.444;2022-08-11T18:47:13;24.70;98.20
22842;DHT22;11587;47.064;15.444;2022-08-11T18:49:59;24.60;97.90
22842;DHT22;11587;47.064;15.444;2022-08-11T18:52:51;24.50;98.70
22842;DHT22;11587;47.064;15.444;2022-08-11T18:55:36;24.40;98.30
22842;DHT22;11587;47.064;15.444;2022-08-11T18:58:27;24.20;98.60
22842;DHT22;11587;47.064;15.444;2022-08-11T19:01:14;24.30;99.00
22842;DHT22;11587;47.064;15.444;2022-08-11T19:06:24;24.20;98.40
22842;DHT22;11587;47.064;15.444;2022-08-11T19:11:37;24.10;99.20
22842;DHT22;11587;47.064;15.444;2022-08-11T19:14:23;24.00;98.70
22842;DHT22;11587;47.064;15.444;2022-08-11T19:17:09;24.00;99.20
22842;DHT22;11587;47.064;15.444;2022-08-11T19:19:56;24.10;99.10
22842;DHT22;11587;47.064;15.444;2022-08-11T19:22:42;24.10;99.70
22842;DHT22;11587;47.064;15.444;2022-08-11T19:25:28;23.90;98.40
22842;DHT22;11587;47.064;15.444;2022-08-11T19:28:16;23.90;99.80
22842;DHT22;11587;47.064;15.444;2022-08-11T19:31:02;23.90;99.20
22842;DHT22;11587;47.064;15.444;2022-08-11T19:36:12;24.00;99.40
22842;DHT22;11587;47.064;15.444;2022-08-11T19:41:23;23.90;99.60
22842;DHT22;11587;47.064;15.444;2022-08-11T19:44:08;23.90;99.00
22842;DHT22;11587;47.064;15.444;2022-08-11T19:46:54;23.90;99.10
22842;DHT22;11587;47.064;15.444;2022-08-11T19:49:41;23.90;99.20
22842;DHT22;11587;47.064;15.444;2022-08-11T19:52:27;23.90;98.20
22842;DHT22;11587;47.064;15.444;2022-08-11T19:55:13;23.90;98.60
22842;DHT22;11587;47.064;15.444;2022-08-11T19:58:01;23.80;99.30
22842;DHT22;11587;47.064;15.444;2022-08-11T20:00:46;23.80;98.50
22842;DHT22;11587;47.064;15.444;2022-08-11T20:05:59;23.80;98.90
22842;DHT22;11587;47.064;15.444;2022-08-11T20:11:11;23.70;98.70
22842;DHT22;11587;47.064;15.444;2022-08-11T20:13:58;23.70;99.00
22842;DHT22;11587;47.064;15.444;2022-08-11T20:16:43;23.60;99.30
22842;DHT22;11587;47.064;15.444;2022-08-11T20:19:28;23.60;99.60
22842;DHT22;11587;47.064;15.444;2022-08-11T20:22:15;23.60;98.90
22842;DHT22;11587;47.064;15.444;2022-08-11T20:25:03;23.60;99.70
22842;DHT22;11587;47.064;15.444;2022-08-11T20:27:49;23.60;99.20
22842;DHT22;11587;47.064;15.444;2022-08-11T20:33:00;23.40;99.20
22842;DHT22;11587;47.064;15.444;2022-08-11T20:38:13;23.40;98.90
22842;DHT22;11587;47.064;15.444;2022-08-11T20:40:59;23.40;99.20
22842;DHT22;11587;47.064;15.444;2022-08-11T20:43:45;23.40;99.30
22842;DHT22;11587;47.064;15.444;2022-08-11T20:46:31;23.40;98.80
22842;DHT22;11587;47.064;15.444;2022-08-11T20:49:18;23.40;98.40
22842;DHT22;11587;47.064;15.444;2022-08-11T20:52:06;23.40;98.20
22842;DHT22;11587;47.064;15.444;2022-08-11T20:54:50;23.30;97.70
22842;DHT22;11587;47.064;15.444;2022-08-11T20:57:35;23.30;98.90
22842;DHT22;11587;47.064;15.444;2022-08-11T21:02:46;23.20;99.20
22842;DHT22;11587;47.064;15.444;2022-08-11T21:05:34;23.20;99.80
22842;DHT22;11587;47.064;15.444;2022-08-11T21:08:31;23.20;99.90
22842;DHT22;11587;47.064;15.444;2022-08-11T21:11:18;23.20;99.90
22842;DHT22;11587;47.064;15.444;2022-08-11T21:14:06;23.10;99.40
22842;DHT22;11587;47.064;15.444;2022-08-11T21:16:57;23.10;98.80
22842;DHT22;11587;47.064;15.444;2022-08-11T21:19:45;23.00;99.10
22842;DHT22;11587;47.064;15.444;2022-08-11T21:22:45;23.10;99.60
22842;DHT22;11587;47.064;15.444;2022-08-11T21:26:08;23.00;99.20
22842;DHT22;11587;47.064;15.444;2022-08-11T21:28:46;23.00;99.70
22842;DHT22;11587;47.064;15.444;2022-08-11T21:31:33;23.00;99.90
22842;DHT22;11587;47.064;15.444;2022-08-11T21:34:20;23.00;99.90